Nordic Harrier — V7VH2 — position and weather

sailwx.info

Track history (hours):
 
Tides and Currents Weather Stations Pressure Air Temp Water Temp Dewpoint Dewpoint Depression Visibility Wind Speed Wind Dir Waves Ship Positions

Nordic Harrier

Last reported at 2017-Sep-16 07:10 UTC. Time now 2017-Sep-26 07:19 UTC.
Position N 01°19' E 103°20'.
Warning: this ship's position is 10 days out of date.

Length 274 m; draft 8.8 m.

Type: Ship. MMSI: 538004121.

Date/timePositionNaut miles runAvg speedWind from/ knotsBaromVisibWave heightAir tempDewpointWater temp
2017-Sep-16 07:10N 01°19' E 103°20'210.5
2017-Sep-16 06:59N 01°18' E 103°21'510.0
2017-Sep-16 06:28N 01°14' E 103°25'5 9.9
2017-Sep-16 06:00N 01°13' E 103°29'5 9.4
2017-Sep-16 05:31N 01°12' E 103°34'5 9.2
2017-Sep-16 05:00N 01°12' E 103°38'4 7.1
2017-Sep-16 04:31N 01°14' E 103°41'5 9.0
2017-Sep-16 04:01N 01°17' E 103°45'0 0.4
2017-Sep-16 03:28N 01°17' E 103°44'0 0.0
2017-Sep-16 02:58N 01°17' E 103°44'0 0.0
2017-Sep-16 02:28N 01°17' E 103°44'0 0.0
2017-Sep-16 01:58N 01°17' E 103°44'0 0.0
2017-Sep-16 01:28N 01°17' E 103°44'0 0.0
2017-Sep-15 05:12N 01°17' E 103°44'0 0.0
2017-Sep-15 05:00N 01°17' E 103°44'0 0.0
2017-Sep-15 04:30N 01°17' E 103°44'0 0.0
2017-Sep-15 04:00N 01°17' E 103°44'0 0.0
2017-Sep-15 03:30N 01°17' E 103°44'0 0.0
2017-Sep-15 02:59N 01°17' E 103°44'0 0.0
2017-Sep-15 02:30N 01°17' E 103°44'0 0.0
2017-Sep-15 02:00N 01°17' E 103°44'0 0.0
2017-Sep-15 01:30N 01°17' E 103°44'0 0.0
2017-Sep-15 01:01N 01°17' E 103°44'0 0.0
2017-Sep-15 00:30N 01°17' E 103°44'0 0.0
2017-Sep-15 00:00N 01°17' E 103°44'1 3.0
2017-Sep-14 23:30N 01°16' E 103°46'2 3.6
2017-Sep-14 23:00N 01°15' E 103°44'4 7.2
2017-Sep-14 22:30N 01°13' E 103°41'0 0.1
2017-Sep-14 16:04N 01°13' E 103°41'0 0.0
2017-Sep-14 15:43N 01°13' E 103°41'0 0.0
2017-Sep-14 15:22N 01°13' E 103°41'0 0.0
2017-Sep-14 14:52N 01°13' E 103°41'0 0.0
2017-Sep-14 14:28N 01°13' E 103°41'0 0.0
2017-Sep-14 13:58N 01°13' E 103°41'0 0.0
2017-Sep-14 12:34N 01°13' E 103°41'0 0.0
2017-Sep-14 12:28N 01°13' E 103°41'0 0.2
2017-Sep-14 11:59N 01°13' E 103°41'0 0.9
2017-Sep-14 11:30N 01°13' E 103°41'1 2.5
2017-Sep-14 10:58N 01°14' E 103°40'0 0.3
2017-Sep-14 09:43N 01°14' E 103°40'0 0.0
2017-Sep-14 09:22N 01°14' E 103°40'0 0.0
2017-Sep-12 17:08N 01°14' E 103°40'0 0.0
2017-Sep-12 16:59N 01°14' E 103°40'0 0.0
2017-Sep-12 16:29N 01°14' E 103°40'0 0.0
2017-Sep-12 15:59N 01°14' E 103°40'0 0.1
2017-Sep-12 15:29N 01°14' E 103°40'0 0.6
2017-Sep-12 14:59N 01°14' E 103°40'1 1.8
2017-Sep-12 14:30N 01°13' E 103°40'0 0.8
2017-Sep-12 13:58N 01°13' E 103°39'0 0.0
2017-Sep-12 13:28N 01°13' E 103°39'0 0.1
2017-Sep-12 12:58N 01°13' E 103°39'0 0.0
2017-Sep-12 12:28N 01°13' E 103°39'0 0.0
2017-Sep-12 11:58N 01°13' E 103°39'0 0.1
2017-Sep-12 11:28N 01°13' E 103°39'0 0.1
2017-Sep-12 10:55N 01°13' E 103°39'0 0.3
2017-Sep-12 10:19N 01°13' E 103°39'0 0.4
2017-Sep-12 09:58N 01°13' E 103°39'0 0.0
2017-Sep-12 09:28N 01°13' E 103°39'0 0.0
2017-Sep-12 08:58N 01°13' E 103°39'0 0.0
2017-Sep-12 08:25N 01°13' E 103°39'0 0.4
2017-Sep-12 07:58N 01°13' E 103°39'0 0.5
2017-Sep-12 07:30N 01°13' E 103°39'1 1.6
2017-Sep-12 06:59N 01°12' E 103°39'4 7.5
2017-Sep-12 06:30N 01°12' E 103°35'4 7.7
2017-Sep-12 06:01N 01°15' E 103°33'4 8.4
2017-Sep-12 05:30N 01°20' E 103°33'2 3.6
2017-Sep-12 04:59N 01°21' E 103°33'0 0.5
2017-Sep-12 04:30N 01°21' E 103°33'0 0.0
2017-Sep-12 03:59N 01°21' E 103°33'0 0.0
2017-Sep-12 03:30N 01°21' E 103°33'0 0.0
2017-Sep-12 03:00N 01°21' E 103°33'0 0.0
2017-Sep-12 02:30N 01°21' E 103°33'0 0.0
2017-Sep-12 02:00N 01°21' E 103°33'0 0.0
2017-Sep-12 01:30N 01°21' E 103°33'0 0.0
2017-Sep-12 00:59N 01°21' E 103°33'0 0.0
2017-Sep-12 00:30N 01°21' E 103°33'0 0.0
2017-Sep-11 23:59N 01°21' E 103°33'0 0.0
2017-Sep-11 12:24N 01°21' E 103°33'0 0.0
2017-Sep-09 10:15N 01°21' E 103°33'0 0.0
2017-Sep-09 09:59N 01°21' E 103°33'0 0.0
2017-Sep-09 09:31N 01°21' E 103°33'0 0.1
2017-Sep-09 08:59N 01°21' E 103°33'1 1.6
2017-Sep-09 08:29N 01°20' E 103°33'2 4.0
2017-Sep-09 08:01N 01°19' E 103°33'4 7.1
2017-Sep-09 07:30N 01°15' E 103°33'2 3.2
2017-Sep-09 07:01N 01°15' E 103°34'0 0.8
2017-Sep-09 06:26N 01°15' E 103°35'0 0.1
2017-Sep-09 05:56N 01°15' E 103°35'0 0.2
2017-Sep-09 05:26N 01°15' E 103°35'0 0.1
2017-Sep-09 04:59N 01°15' E 103°35'0 0.2
2017-Sep-09 04:29N 01°15' E 103°35'0 0.1
2017-Sep-09 03:56N 01°15' E 103°35'0 0.1
2017-Sep-09 03:29N 01°15' E 103°35'0 0.0
2017-Sep-09 02:59N 01°15' E 103°35'0 0.1
2017-Sep-09 02:20N 01°15' E 103°35'0 0.0
2017-Sep-09 01:56N 01°15' E 103°35'0 0.0
2017-Sep-09 01:26N 01°15' E 103°35'0 0.3
2017-Sep-09 00:59N 01°15' E 103°34'0 0.0
2017-Sep-09 00:29N 01°15' E 103°34'0 0.0
2017-Sep-08 23:59N 01°15' E 103°34'0 0.0
2017-Sep-08 23:29N 01°15' E 103°34'0 0.0
2017-Sep-08 22:59N 01°15' E 103°34'0 0.1
2017-Sep-08 22:29N 01°15' E 103°34'0 0.0
2017-Sep-08 21:59N 01°15' E 103°34'0 0.1
2017-Sep-08 21:29N 01°15' E 103°34'0 0.2
2017-Sep-08 20:59N 01°15' E 103°34'0 0.2
2017-Sep-08 20:23N 01°15' E 103°34'0 0.1
2017-Sep-08 19:56N 01°15' E 103°35'0 0.1
2017-Sep-08 19:26N 01°15' E 103°35'0 0.1
2017-Sep-08 18:53N 01°15' E 103°35'0 0.0
2017-Sep-08 18:29N 01°15' E 103°35'0 0.1
2017-Sep-08 17:56N 01°15' E 103°35'0 0.1
2017-Sep-08 17:20N 01°15' E 103°35'0 0.1
2017-Sep-08 16:53N 01°15' E 103°35'0 0.1
2017-Sep-08 16:17N 01°15' E 103°35'0 0.1
2017-Sep-08 15:59N 01°15' E 103°35'0 0.1
2017-Sep-08 15:29N 01°15' E 103°35'0 0.0
2017-Sep-08 14:56N 01°15' E 103°35'0 0.2
2017-Sep-08 14:29N 01°15' E 103°35'0 0.1
2017-Sep-08 13:56N 01°15' E 103°35'0 0.0
2017-Sep-08 13:29N 01°15' E 103°35'0 0.1
2017-Sep-08 12:59N 01°15' E 103°34'0 0.1
2017-Sep-08 12:14N 01°15' E 103°34'0 0.0
2017-Sep-08 11:59N 01°15' E 103°34'0 0.0
2017-Sep-08 11:29N 01°15' E 103°34'0 0.1
2017-Sep-08 10:50N 01°15' E 103°34'0 0.0
2017-Sep-08 10:29N 01°15' E 103°34'0 0.0
2017-Sep-08 09:59N 01°15' E 103°34'0 0.0
2017-Sep-08 09:29N 01°15' E 103°34'0 0.1
2017-Sep-08 08:59N 01°15' E 103°34'0 0.3
2017-Sep-08 08:26N 01°15' E 103°34'0 0.2
2017-Sep-08 07:53N 01°15' E 103°35'0 0.1
2017-Sep-08 07:11N 01°15' E 103°35'0 0.0
2017-Sep-08 06:56N 01°15' E 103°35'0 0.0
2017-Sep-08 06:29N 01°15' E 103°35'0 0.0
2017-Sep-08 05:11N 01°15' E 103°35'0 0.0
2017-Sep-08 04:53N 01°15' E 103°35'0 0.1
2017-Sep-08 04:29N 01°15' E 103°35'0 0.2
2017-Sep-08 03:59N 01°15' E 103°35'0 0.3
2017-Sep-08 03:29N 01°15' E 103°35'0 0.2
2017-Sep-08 02:59N 01°15' E 103°35'0 0.1
2017-Sep-08 02:26N 01°15' E 103°35'0 0.0
2017-Sep-08 01:59N 01°15' E 103°35'0 0.2
2017-Sep-08 01:26N 01°15' E 103°34'0 0.0
2017-Sep-08 00:59N 01°15' E 103°34'0 0.1
2017-Sep-08 00:26N 01°15' E 103°34'0 0.2
2017-Sep-07 23:59N 01°15' E 103°34'0 0.1
2017-Sep-07 23:26N 01°15' E 103°34'0 0.1
2017-Sep-07 22:59N 01°15' E 103°34'0 0.1
2017-Sep-07 22:26N 01°15' E 103°34'0 0.2
2017-Sep-07 21:59N 01°15' E 103°34'0 0.0
2017-Sep-07 21:23N 01°15' E 103°34'0 0.1
2017-Sep-07 20:59N 01°15' E 103°35'0 0.0
2017-Sep-07 20:26N 01°15' E 103°35'0 0.1
2017-Sep-07 19:59N 01°15' E 103°35'0 0.0
2017-Sep-07 19:20N 01°15' E 103°35'0 0.1
2017-Sep-07 18:35N 01°15' E 103°35'0 0.0
2017-Sep-07 18:26N 01°15' E 103°35'0 0.1
2017-Sep-07 17:56N 01°15' E 103°35'0 0.0
2017-Sep-07 17:11N 01°15' E 103°35'0 0.0
2017-Sep-07 16:56N 01°15' E 103°35'0 0.1
2017-Sep-07 16:26N 01°15' E 103°35'0 0.1
2017-Sep-07 15:47N 01°15' E 103°35'0 0.1
2017-Sep-07 15:26N 01°15' E 103°35'0 0.0
2017-Sep-07 14:59N 01°15' E 103°35'0 0.0
2017-Sep-07 14:29N 01°15' E 103°35'0 0.0
2017-Sep-07 13:59N 01°15' E 103°35'0 0.0
2017-Sep-07 13:29N 01°15' E 103°35'0 0.1
2017-Sep-07 12:56N 01°15' E 103°35'0 0.1
2017-Sep-07 12:26N 01°15' E 103°35'0 0.1
2017-Sep-07 11:59N 01°15' E 103°34'0 0.1
2017-Sep-07 11:23N 01°15' E 103°34'0 0.0
2017-Sep-07 10:59N 01°15' E 103°34'0 0.0
2017-Sep-07 10:29N 01°15' E 103°34'0 0.0
2017-Sep-07 09:59N 01°15' E 103°34'0 0.1
2017-Sep-07 09:29N 01°15' E 103°34'0 0.0
2017-Sep-07 08:59N 01°15' E 103°34'0 0.0
2017-Sep-07 08:29N 01°15' E 103°34'0 0.1
2017-Sep-07 07:59N 01°15' E 103°34'0 0.2
2017-Sep-07 07:29N 01°15' E 103°34'0 0.3
2017-Sep-07 06:59N 01°15' E 103°35'0 0.0
2017-Sep-07 06:29N 01°15' E 103°35'0 0.1
2017-Sep-07 05:50N 01°15' E 103°35'0 0.0
2017-Sep-07 04:56N 01°15' E 103°35'0 0.1
2017-Sep-07 03:56N 01°15' E 103°35'0 0.2
2017-Sep-07 03:26N 01°15' E 103°35'0 0.2
2017-Sep-07 02:59N 01°15' E 103°35'0 0.3
2017-Sep-07 02:23N 01°15' E 103°35'0 0.3
2017-Sep-07 01:59N 01°15' E 103°34'0 0.1
2017-Sep-07 01:29N 01°15' E 103°34'0 0.1
2017-Sep-07 00:59N 01°15' E 103°34'0 0.1
2017-Sep-07 00:29N 01°15' E 103°34'0 0.2
2017-Sep-06 23:56N 01°15' E 103°34'0 0.2
2017-Sep-06 23:29N 01°15' E 103°34'0 0.1
2017-Sep-06 22:47N 01°15' E 103°34'0 0.1
2017-Sep-06 22:29N 01°15' E 103°34'0 0.1
2017-Sep-06 21:59N 01°15' E 103°34'0 0.0
2017-Sep-06 21:29N 01°15' E 103°34'0 0.1
2017-Sep-06 20:59N 01°15' E 103°35'0 0.0
2017-Sep-06 20:26N 01°15' E 103°35'0 0.1
2017-Sep-06 19:59N 01°15' E 103°35'0 0.0
2017-Sep-06 19:29N 01°15' E 103°35'0 0.0
2017-Sep-06 18:59N 01°15' E 103°35'0 0.0
2017-Sep-06 18:26N 01°15' E 103°35'0 0.0
2017-Sep-06 17:50N 01°15' E 103°35'0 0.1
2017-Sep-06 16:35N 01°15' E 103°35'0 0.1
2017-Sep-06 16:26N 01°15' E 103°35'0 0.2
2017-Sep-06 15:56N 01°15' E 103°35'0 0.1
2017-Sep-06 15:29N 01°15' E 103°35'0 0.1
2017-Sep-06 14:53N 01°15' E 103°35'0 0.2
2017-Sep-06 14:29N 01°15' E 103°35'0 0.0
2017-Sep-06 13:59N 01°15' E 103°35'0 0.0
2017-Sep-06 13:29N 01°15' E 103°35'0 0.0
2017-Sep-06 12:59N 01°15' E 103°35'0 0.0
2017-Sep-06 12:26N 01°15' E 103°35'0 0.1
2017-Sep-06 11:56N 01°15' E 103°35'0 0.3
2017-Sep-06 11:29N 01°15' E 103°34'0 0.1
2017-Sep-06 10:56N 01°15' E 103°34'0 0.0
2017-Sep-06 10:29N 01°15' E 103°34'0 0.0
2017-Sep-06 09:59N 01°15' E 103°34'0 0.0
2017-Sep-06 09:26N 01°15' E 103°34'0 0.1
2017-Sep-06 08:59N 01°15' E 103°34'0 0.0
2017-Sep-06 08:26N 01°15' E 103°34'0 0.1
2017-Sep-06 07:59N 01°15' E 103°34'0 0.3
2017-Sep-06 07:29N 01°15' E 103°34'  
Track history (hours):
 
Tides and Currents Weather Stations Pressure Air Temp Water Temp Dewpoint Dewpoint Depression Visibility Wind Speed Wind Dir Waves Ship Positions

Nordic Harrier

Last reported at 2017-Sep-16 07:10 UTC. Time now 2017-Sep-26 07:19 UTC.
Position N 01°19' E 103°20'.
Warning: this ship's position is 10 days out of date.

Length 274 m; draft 8.8 m.

Type: Ship. MMSI: 538004121.

Date/timePositionNaut miles runAvg speedWind from/ knotsBaromVisibWave heightAir tempDewpointWater temp
2017-Sep-16 07:10N 01°19' E 103°20'210.5
2017-Sep-16 06:59N 01°18' E 103°21'510.0
2017-Sep-16 06:28N 01°14' E 103°25'5 9.9
2017-Sep-16 06:00N 01°13' E 103°29'5 9.4
2017-Sep-16 05:31N 01°12' E 103°34'5 9.2
2017-Sep-16 05:00N 01°12' E 103°38'4 7.1
2017-Sep-16 04:31N 01°14' E 103°41'5 9.0
2017-Sep-16 04:01N 01°17' E 103°45'0 0.4
2017-Sep-16 03:28N 01°17' E 103°44'0 0.0
2017-Sep-16 02:58N 01°17' E 103°44'0 0.0
2017-Sep-16 02:28N 01°17' E 103°44'0 0.0
2017-Sep-16 01:58N 01°17' E 103°44'0 0.0
2017-Sep-16 01:28N 01°17' E 103°44'0 0.0
2017-Sep-15 05:12N 01°17' E 103°44'0 0.0
2017-Sep-15 05:00N 01°17' E 103°44'0 0.0
2017-Sep-15 04:30N 01°17' E 103°44'0 0.0
2017-Sep-15 04:00N 01°17' E 103°44'0 0.0
2017-Sep-15 03:30N 01°17' E 103°44'0 0.0
2017-Sep-15 02:59N 01°17' E 103°44'0 0.0
2017-Sep-15 02:30N 01°17' E 103°44'0 0.0
2017-Sep-15 02:00N 01°17' E 103°44'0 0.0
2017-Sep-15 01:30N 01°17' E 103°44'0 0.0
2017-Sep-15 01:01N 01°17' E 103°44'0 0.0
2017-Sep-15 00:30N 01°17' E 103°44'0 0.0
2017-Sep-15 00:00N 01°17' E 103°44'1 3.0
2017-Sep-14 23:30N 01°16' E 103°46'2 3.6
2017-Sep-14 23:00N 01°15' E 103°44'4 7.2
2017-Sep-14 22:30N 01°13' E 103°41'0 0.1
2017-Sep-14 16:04N 01°13' E 103°41'0 0.0
2017-Sep-14 15:43N 01°13' E 103°41'0 0.0
2017-Sep-14 15:22N 01°13' E 103°41'0 0.0
2017-Sep-14 14:52N 01°13' E 103°41'0 0.0
2017-Sep-14 14:28N 01°13' E 103°41'0 0.0
2017-Sep-14 13:58N 01°13' E 103°41'0 0.0
2017-Sep-14 12:34N 01°13' E 103°41'0 0.0
2017-Sep-14 12:28N 01°13' E 103°41'0 0.2
2017-Sep-14 11:59N 01°13' E 103°41'0 0.9
2017-Sep-14 11:30N 01°13' E 103°41'1 2.5
2017-Sep-14 10:58N 01°14' E 103°40'0 0.3
2017-Sep-14 09:43N 01°14' E 103°40'0 0.0
2017-Sep-14 09:22N 01°14' E 103°40'0 0.0
2017-Sep-12 17:08N 01°14' E 103°40'0 0.0
2017-Sep-12 16:59N 01°14' E 103°40'0 0.0
2017-Sep-12 16:29N 01°14' E 103°40'0 0.0
2017-Sep-12 15:59N 01°14' E 103°40'0 0.1
2017-Sep-12 15:29N 01°14' E 103°40'0 0.6
2017-Sep-12 14:59N 01°14' E 103°40'1 1.8
2017-Sep-12 14:30N 01°13' E 103°40'0 0.8
2017-Sep-12 13:58N 01°13' E 103°39'0 0.0
2017-Sep-12 13:28N 01°13' E 103°39'0 0.1
2017-Sep-12 12:58N 01°13' E 103°39'0 0.0
2017-Sep-12 12:28N 01°13' E 103°39'0 0.0
2017-Sep-12 11:58N 01°13' E 103°39'0 0.1
2017-Sep-12 11:28N 01°13' E 103°39'0 0.1
2017-Sep-12 10:55N 01°13' E 103°39'0 0.3
2017-Sep-12 10:19N 01°13' E 103°39'0 0.4
2017-Sep-12 09:58N 01°13' E 103°39'0 0.0
2017-Sep-12 09:28N 01°13' E 103°39'0 0.0
2017-Sep-12 08:58N 01°13' E 103°39'0 0.0
2017-Sep-12 08:25N 01°13' E 103°39'0 0.4
2017-Sep-12 07:58N 01°13' E 103°39'0 0.5
2017-Sep-12 07:30N 01°13' E 103°39'1 1.6
2017-Sep-12 06:59N 01°12' E 103°39'4 7.5
2017-Sep-12 06:30N 01°12' E 103°35'4 7.7
2017-Sep-12 06:01N 01°15' E 103°33'4 8.4
2017-Sep-12 05:30N 01°20' E 103°33'2 3.6
2017-Sep-12 04:59N 01°21' E 103°33'0 0.5
2017-Sep-12 04:30N 01°21' E 103°33'0 0.0
2017-Sep-12 03:59N 01°21' E 103°33'0 0.0
2017-Sep-12 03:30N 01°21' E 103°33'0 0.0
2017-Sep-12 03:00N 01°21' E 103°33'0 0.0
2017-Sep-12 02:30N 01°21' E 103°33'0 0.0
2017-Sep-12 02:00N 01°21' E 103°33'0 0.0
2017-Sep-12 01:30N 01°21' E 103°33'0 0.0
2017-Sep-12 00:59N 01°21' E 103°33'0 0.0
2017-Sep-12 00:30N 01°21' E 103°33'0 0.0
2017-Sep-11 23:59N 01°21' E 103°33'0 0.0
2017-Sep-11 12:24N 01°21' E 103°33'0 0.0
2017-Sep-09 10:15N 01°21' E 103°33'0 0.0
2017-Sep-09 09:59N 01°21' E 103°33'0 0.0
2017-Sep-09 09:31N 01°21' E 103°33'0 0.1
2017-Sep-09 08:59N 01°21' E 103°33'1 1.6
2017-Sep-09 08:29N 01°20' E 103°33'2 4.0
2017-Sep-09 08:01N 01°19' E 103°33'4 7.1
2017-Sep-09 07:30N 01°15' E 103°33'2 3.2
2017-Sep-09 07:01N 01°15' E 103°34'0 0.8
2017-Sep-09 06:26N 01°15' E 103°35'0 0.1
2017-Sep-09 05:56N 01°15' E 103°35'0 0.2
2017-Sep-09 05:26N 01°15' E 103°35'0 0.1
2017-Sep-09 04:59N 01°15' E 103°35'0 0.2
2017-Sep-09 04:29N 01°15' E 103°35'0 0.1
2017-Sep-09 03:56N 01°15' E 103°35'0 0.1
2017-Sep-09 03:29N 01°15' E 103°35'0 0.0
2017-Sep-09 02:59N 01°15' E 103°35'0 0.1
2017-Sep-09 02:20N 01°15' E 103°35'0 0.0
2017-Sep-09 01:56N 01°15' E 103°35'0 0.0
2017-Sep-09 01:26N 01°15' E 103°35'0 0.3
2017-Sep-09 00:59N 01°15' E 103°34'0 0.0
2017-Sep-09 00:29N 01°15' E 103°34'0 0.0
2017-Sep-08 23:59N 01°15' E 103°34'0 0.0
2017-Sep-08 23:29N 01°15' E 103°34'0 0.0
2017-Sep-08 22:59N 01°15' E 103°34'0 0.1
2017-Sep-08 22:29N 01°15' E 103°34'0 0.0
2017-Sep-08 21:59N 01°15' E 103°34'0 0.1
2017-Sep-08 21:29N 01°15' E 103°34'0 0.2
2017-Sep-08 20:59N 01°15' E 103°34'0 0.2
2017-Sep-08 20:23N 01°15' E 103°34'0 0.1
2017-Sep-08 19:56N 01°15' E 103°35'0 0.1
2017-Sep-08 19:26N 01°15' E 103°35'0 0.1
2017-Sep-08 18:53N 01°15' E 103°35'0 0.0
2017-Sep-08 18:29N 01°15' E 103°35'0 0.1
2017-Sep-08 17:56N 01°15' E 103°35'0 0.1
2017-Sep-08 17:20N 01°15' E 103°35'0 0.1
2017-Sep-08 16:53N 01°15' E 103°35'0 0.1
2017-Sep-08 16:17N 01°15' E 103°35'0 0.1
2017-Sep-08 15:59N 01°15' E 103°35'0 0.1
2017-Sep-08 15:29N 01°15' E 103°35'0 0.0
2017-Sep-08 14:56N 01°15' E 103°35'0 0.2
2017-Sep-08 14:29N 01°15' E 103°35'0 0.1
2017-Sep-08 13:56N 01°15' E 103°35'0 0.0
2017-Sep-08 13:29N 01°15' E 103°35'0 0.1
2017-Sep-08 12:59N 01°15' E 103°34'0 0.1
2017-Sep-08 12:14N 01°15' E 103°34'0 0.0
2017-Sep-08 11:59N 01°15' E 103°34'0 0.0
2017-Sep-08 11:29N 01°15' E 103°34'0 0.1
2017-Sep-08 10:50N 01°15' E 103°34'0 0.0
2017-Sep-08 10:29N 01°15' E 103°34'0 0.0
2017-Sep-08 09:59N 01°15' E 103°34'0 0.0
2017-Sep-08 09:29N 01°15' E 103°34'0 0.1
2017-Sep-08 08:59N 01°15' E 103°34'0 0.3
2017-Sep-08 08:26N 01°15' E 103°34'0 0.2
2017-Sep-08 07:53N 01°15' E 103°35'0 0.1
2017-Sep-08 07:11N 01°15' E 103°35'0 0.0
2017-Sep-08 06:56N 01°15' E 103°35'0 0.0
2017-Sep-08 06:29N 01°15' E 103°35'0 0.0
2017-Sep-08 05:11N 01°15' E 103°35'0 0.0
2017-Sep-08 04:53N 01°15' E 103°35'0 0.1
2017-Sep-08 04:29N 01°15' E 103°35'0 0.2
2017-Sep-08 03:59N 01°15' E 103°35'0 0.3
2017-Sep-08 03:29N 01°15' E 103°35'0 0.2
2017-Sep-08 02:59N 01°15' E 103°35'0 0.1
2017-Sep-08 02:26N 01°15' E 103°35'0 0.0
2017-Sep-08 01:59N 01°15' E 103°35'0 0.2
2017-Sep-08 01:26N 01°15' E 103°34'0 0.0
2017-Sep-08 00:59N 01°15' E 103°34'0 0.1
2017-Sep-08 00:26N 01°15' E 103°34'0 0.2
2017-Sep-07 23:59N 01°15' E 103°34'0 0.1
2017-Sep-07 23:26N 01°15' E 103°34'0 0.1
2017-Sep-07 22:59N 01°15' E 103°34'0 0.1
2017-Sep-07 22:26N 01°15' E 103°34'0 0.2
2017-Sep-07 21:59N 01°15' E 103°34'0 0.0
2017-Sep-07 21:23N 01°15' E 103°34'0 0.1
2017-Sep-07 20:59N 01°15' E 103°35'0 0.0
2017-Sep-07 20:26N 01°15' E 103°35'0 0.1
2017-Sep-07 19:59N 01°15' E 103°35'0 0.0
2017-Sep-07 19:20N 01°15' E 103°35'0 0.1
2017-Sep-07 18:35N 01°15' E 103°35'0 0.0
2017-Sep-07 18:26N 01°15' E 103°35'0 0.1
2017-Sep-07 17:56N 01°15' E 103°35'0 0.0
2017-Sep-07 17:11N 01°15' E 103°35'0 0.0
2017-Sep-07 16:56N 01°15' E 103°35'0 0.1
2017-Sep-07 16:26N 01°15' E 103°35'0 0.1
2017-Sep-07 15:47N 01°15' E 103°35'0 0.1
2017-Sep-07 15:26N 01°15' E 103°35'0 0.0
2017-Sep-07 14:59N 01°15' E 103°35'0 0.0
2017-Sep-07 14:29N 01°15' E 103°35'0 0.0
2017-Sep-07 13:59N 01°15' E 103°35'0 0.0
2017-Sep-07 13:29N 01°15' E 103°35'0 0.1
2017-Sep-07 12:56N 01°15' E 103°35'0 0.1
2017-Sep-07 12:26N 01°15' E 103°35'0 0.1
2017-Sep-07 11:59N 01°15' E 103°34'0 0.1
2017-Sep-07 11:23N 01°15' E 103°34'0 0.0
2017-Sep-07 10:59N 01°15' E 103°34'0 0.0
2017-Sep-07 10:29N 01°15' E 103°34'0 0.0
2017-Sep-07 09:59N 01°15' E 103°34'0 0.1
2017-Sep-07 09:29N 01°15' E 103°34'0 0.0
2017-Sep-07 08:59N 01°15' E 103°34'0 0.0
2017-Sep-07 08:29N 01°15' E 103°34'0 0.1
2017-Sep-07 07:59N 01°15' E 103°34'0 0.2
2017-Sep-07 07:29N 01°15' E 103°34'0 0.3
2017-Sep-07 06:59N 01°15' E 103°35'0 0.0
2017-Sep-07 06:29N 01°15' E 103°35'0 0.1
2017-Sep-07 05:50N 01°15' E 103°35'0 0.0
2017-Sep-07 04:56N 01°15' E 103°35'0 0.1
2017-Sep-07 03:56N 01°15' E 103°35'0 0.2
2017-Sep-07 03:26N 01°15' E 103°35'0 0.2
2017-Sep-07 02:59N 01°15' E 103°35'0 0.3
2017-Sep-07 02:23N 01°15' E 103°35'0 0.3
2017-Sep-07 01:59N 01°15' E 103°34'0 0.1
2017-Sep-07 01:29N 01°15' E 103°34'0 0.1
2017-Sep-07 00:59N 01°15' E 103°34'0 0.1
2017-Sep-07 00:29N 01°15' E 103°34'0 0.2
2017-Sep-06 23:56N 01°15' E 103°34'0 0.2
2017-Sep-06 23:29N 01°15' E 103°34'0 0.1
2017-Sep-06 22:47N 01°15' E 103°34'0 0.1
2017-Sep-06 22:29N 01°15' E 103°34'0 0.1
2017-Sep-06 21:59N 01°15' E 103°34'0 0.0
2017-Sep-06 21:29N 01°15' E 103°34'0 0.1
2017-Sep-06 20:59N 01°15' E 103°35'0 0.0
2017-Sep-06 20:26N 01°15' E 103°35'0 0.1
2017-Sep-06 19:59N 01°15' E 103°35'0 0.0
2017-Sep-06 19:29N 01°15' E 103°35'0 0.0
2017-Sep-06 18:59N 01°15' E 103°35'0 0.0
2017-Sep-06 18:26N 01°15' E 103°35'0 0.0
2017-Sep-06 17:50N 01°15' E 103°35'0 0.1
2017-Sep-06 16:35N 01°15' E 103°35'0 0.1
2017-Sep-06 16:26N 01°15' E 103°35'0 0.2
2017-Sep-06 15:56N 01°15' E 103°35'0 0.1
2017-Sep-06 15:29N 01°15' E 103°35'0 0.1
2017-Sep-06 14:53N 01°15' E 103°35'0 0.2
2017-Sep-06 14:29N 01°15' E 103°35'0 0.0
2017-Sep-06 13:59N 01°15' E 103°35'0 0.0
2017-Sep-06 13:29N 01°15' E 103°35'0 0.0
2017-Sep-06 12:59N 01°15' E 103°35'0 0.0
2017-Sep-06 12:26N 01°15' E 103°35'0 0.1
2017-Sep-06 11:56N 01°15' E 103°35'0 0.3
2017-Sep-06 11:29N 01°15' E 103°34'0 0.1
2017-Sep-06 10:56N 01°15' E 103°34'0 0.0
2017-Sep-06 10:29N 01°15' E 103°34'0 0.0
2017-Sep-06 09:59N 01°15' E 103°34'0 0.0
2017-Sep-06 09:26N 01°15' E 103°34'0 0.1
2017-Sep-06 08:59N 01°15' E 103°34'0 0.0
2017-Sep-06 08:26N 01°15' E 103°34'0 0.1
2017-Sep-06 07:59N 01°15' E 103°34'0 0.3
2017-Sep-06 07:29N 01°15' E 103°34'  

Dump ship's entire track history